createdAt,value
2022-08-30T00:01:36.493Z,40.74
2022-08-30T00:04:08.284Z,41.31
2022-08-30T00:06:35.740Z,40.64
2022-08-30T00:09:03.648Z,40.36
2022-08-30T00:11:31.722Z,40.52
2022-08-30T00:13:59.909Z,40.33
2022-08-30T00:16:27.707Z,40.25
2022-08-30T00:18:55.467Z,40.31
2022-08-30T00:21:23.602Z,40.23
2022-08-30T00:23:51.537Z,40.08
2022-08-30T00:26:19.733Z,40.01
2022-08-30T00:28:47.261Z,40.16
2022-08-30T00:31:15.596Z,40.04
2022-08-30T00:33:43.727Z,40.15
2022-08-30T00:36:11.212Z,40.20
2022-08-30T00:38:39.026Z,40.05
2022-08-30T00:41:06.950Z,40.12
2022-08-30T00:43:36.843Z,39.96
2022-08-30T00:46:08.267Z,39.97
2022-08-30T00:48:43.353Z,40.09
2022-08-30T00:51:14.165Z,39.88
2022-08-30T00:53:46.844Z,40.09
2022-08-30T00:56:16.096Z,40.14
2022-08-30T00:58:47.556Z,39.90
2022-08-30T01:01:15.363Z,39.98
2022-08-30T01:03:44.520Z,39.55
2022-08-30T01:06:15.581Z,39.99
2022-08-30T01:08:44.906Z,39.74
2022-08-30T01:11:15.005Z,39.67
2022-08-30T01:13:43.977Z,39.79
2022-08-30T01:16:11.515Z,39.59
2022-08-30T01:18:39.637Z,39.81
2022-08-30T01:21:08.330Z,39.50
2022-08-30T01:23:40.485Z,39.68
2022-08-30T01:26:08.540Z,39.77
2022-08-30T01:28:37.001Z,39.70
2022-08-30T01:31:05.154Z,39.23
2022-08-30T01:33:32.785Z,39.39
2022-08-30T01:36:04.402Z,39.73
2022-08-30T01:38:57.014Z,39.56
2022-08-30T01:41:31.204Z,39.55
2022-08-30T01:44:01.325Z,39.25
2022-08-30T01:46:36.150Z,39.54
2022-08-30T01:49:07.901Z,39.18
2022-08-30T01:51:36.708Z,39.29
2022-08-30T01:54:05.526Z,39.61
2022-08-30T01:56:32.997Z,39.41
2022-08-30T01:59:03.055Z,39.48
2022-08-30T02:01:33.347Z,39.52
2022-08-30T02:04:01.262Z,39.36
2022-08-30T02:06:29.071Z,39.63
2022-08-30T02:08:56.891Z,39.49
2022-08-30T02:11:24.552Z,39.39
2022-08-30T02:13:52.358Z,39.08
2022-08-30T02:16:24.575Z,39.38
2022-08-30T02:18:54.017Z,39.26
2022-08-30T02:21:21.890Z,38.90
2022-08-30T02:23:50.237Z,39.20
2022-08-30T02:26:19.305Z,39.02
2022-08-30T02:28:49.529Z,39.21
2022-08-30T02:31:20.796Z,39.28
2022-08-30T02:33:51.315Z,39.23
2022-08-30T02:36:20.752Z,39.22
2022-08-30T02:38:50.097Z,38.91
2022-08-30T02:41:18.854Z,39.13
2022-08-30T02:43:47.442Z,39.20
2022-08-30T02:46:15.176Z,38.88
2022-08-30T02:48:43.798Z,39.17
2022-08-30T02:51:13.480Z,39.19
2022-08-30T02:53:43.851Z,39.00
2022-08-30T02:56:12.902Z,38.79
2022-08-30T02:58:44.856Z,38.94
2022-08-30T03:01:15.127Z,39.30
2022-08-30T03:03:45.537Z,38.71
2022-08-30T03:06:14.153Z,38.96
2022-08-30T03:08:42.070Z,39.17
2022-08-30T03:11:10.116Z,38.71
2022-08-30T03:13:37.906Z,38.79
2022-08-30T03:16:05.467Z,38.42
2022-08-30T03:18:33.522Z,38.39
2022-08-30T03:21:01.346Z,38.50
2022-08-30T03:23:28.952Z,38.31
2022-08-30T03:25:57.377Z,38.72
2022-08-30T03:28:25.222Z,38.33
2022-08-30T03:30:52.747Z,38.70
2022-08-30T03:33:20.177Z,38.75
2022-08-30T03:35:49.756Z,38.25
2022-08-30T03:38:17.853Z,38.68
2022-08-30T03:40:45.330Z,38.34
2022-08-30T03:43:13.255Z,38.59
2022-08-30T03:45:41.496Z,38.05
2022-08-30T03:48:08.985Z,38.37
2022-08-30T03:50:36.978Z,38.04
2022-08-30T03:53:04.535Z,38.62
2022-08-30T03:55:32.053Z,38.10
2022-08-30T03:57:59.817Z,38.46
2022-08-30T04:00:27.294Z,37.76
2022-08-30T04:02:54.742Z,38.06
2022-08-30T04:05:22.454Z,38.20
2022-08-30T04:07:49.933Z,38.24
2022-08-30T04:10:17.652Z,38.47
2022-08-30T04:12:49.521Z,38.82
2022-08-30T04:15:18.769Z,38.36
2022-08-30T04:17:46.845Z,38.43
2022-08-30T04:20:14.986Z,38.28
2022-08-30T04:22:42.573Z,38.58
2022-08-30T04:25:14.183Z,38.71
2022-08-30T04:27:45.621Z,38.50
2022-08-30T04:30:15.619Z,38.34
2022-08-30T04:32:44.698Z,38.38
2022-08-30T04:35:13.664Z,38.52
2022-08-30T04:37:41.441Z,38.94
2022-08-30T04:40:10.455Z,38.91
2022-08-30T04:42:38.174Z,38.85
2022-08-30T04:45:09.998Z,38.58
2022-08-30T04:47:39.200Z,38.86
2022-08-30T04:50:08.560Z,38.98
2022-08-30T04:52:36.097Z,39.23
2022-08-30T04:55:04.827Z,39.11
2022-08-30T04:57:32.918Z,39.33
2022-08-30T05:00:00.481Z,39.20
2022-08-30T05:02:28.060Z,38.98
2022-08-30T05:05:14.281Z,39.52
2022-08-30T05:07:41.889Z,39.14
2022-08-30T05:10:11.529Z,39.24
2022-08-30T05:12:40.993Z,39.60
2022-08-30T05:15:09.544Z,39.40
2022-08-30T05:17:38.417Z,39.55
2022-08-30T05:20:11.354Z,39.30
2022-08-30T05:22:41.721Z,39.35
2022-08-30T05:25:09.412Z,39.62
2022-08-30T05:27:42.362Z,39.44
2022-08-30T05:30:10.794Z,39.73
2022-08-30T05:32:38.241Z,40.08
2022-08-30T05:35:08.277Z,40.27
2022-08-30T05:37:36.069Z,40.21
2022-08-30T05:40:10.944Z,40.03
2022-08-30T05:42:41.617Z,40.26
2022-08-30T05:45:10.156Z,40.18
2022-08-30T05:47:38.361Z,40.31
2022-08-30T05:50:08.361Z,40.03
2022-08-30T05:52:40.292Z,40.27
2022-08-30T05:55:09.579Z,40.35
2022-08-30T05:57:39.930Z,40.40
2022-08-30T06:00:11.727Z,40.26
2022-08-30T06:02:40.549Z,40.13
2022-08-30T06:05:10.025Z,40.47
2022-08-30T06:07:43.498Z,40.43
2022-08-30T06:10:12.352Z,40.67
2022-08-30T06:12:40.075Z,40.25
2022-08-30T06:15:08.344Z,40.23
2022-08-30T06:17:35.961Z,40.70
2022-08-30T06:20:04.281Z,40.50
2022-08-30T06:22:32.127Z,40.79
2022-08-30T06:24:59.550Z,40.66
2022-08-30T06:27:27.157Z,40.70
2022-08-30T06:29:54.867Z,40.38
2022-08-30T06:32:23.262Z,40.66
2022-08-30T06:34:50.889Z,40.91
2022-08-30T06:37:29.460Z,40.90
2022-08-30T06:39:58.127Z,41.24
2022-08-30T06:42:32.010Z,41.21
2022-08-30T06:45:01.136Z,40.88
2022-08-30T06:47:29.554Z,41.54
2022-08-30T06:49:58.134Z,41.80
2022-08-30T06:52:25.858Z,41.77
2022-08-30T06:54:58.918Z,41.90
2022-08-30T06:57:26.962Z,42.02
2022-08-30T06:59:57.463Z,42.37
2022-08-30T07:02:25.585Z,42.86
2022-08-30T07:04:53.755Z,42.84
2022-08-30T07:07:21.493Z,42.75
2022-08-30T07:09:48.925Z,43.23
2022-08-30T07:12:17.098Z,42.85
2022-08-30T07:14:44.909Z,43.02
2022-08-30T07:17:34.528Z,43.63
2022-08-30T07:20:05.250Z,43.91
2022-08-30T07:22:33.705Z,44.18
2022-08-30T07:25:01.610Z,44.16
2022-08-30T07:27:29.469Z,44.52
2022-08-30T07:29:58.712Z,44.63
2022-08-30T07:32:26.167Z,44.26
2022-08-30T07:34:53.968Z,44.46
2022-08-30T07:37:21.318Z,44.29
2022-08-30T07:39:48.805Z,44.23
2022-08-30T07:42:17.477Z,44.34
2022-08-30T07:44:44.948Z,44.21
2022-08-30T07:47:12.409Z,44.75
2022-08-30T07:49:40.785Z,45.08
2022-08-30T07:52:08.593Z,44.95
2022-08-30T07:54:36.203Z,44.98
2022-08-30T07:57:04.166Z,44.87
2022-08-30T07:59:34.195Z,45.25
2022-08-30T08:02:04.353Z,44.85
2022-08-30T08:04:33.173Z,44.69
2022-08-30T08:07:00.885Z,44.63
2022-08-30T08:09:28.369Z,44.79
2022-08-30T08:11:56.096Z,44.86
2022-08-30T08:14:23.768Z,44.79
2022-08-30T08:16:52.065Z,44.77
2022-08-30T08:19:20.644Z,45.04
2022-08-30T08:21:52.784Z,45.20
2022-08-30T08:24:27.580Z,44.88
2022-08-30T08:26:56.607Z,44.78
2022-08-30T08:29:24.094Z,45.11
2022-08-30T08:31:51.987Z,45.21
2022-08-30T08:34:23.289Z,45.18
2022-08-30T08:36:51.106Z,45.57
2022-08-30T08:39:18.781Z,45.45
2022-08-30T08:41:49.406Z,45.28
2022-08-30T08:47:25.845Z,44.64
2022-08-30T08:49:59.201Z,44.94
2022-08-30T08:53:02.697Z,45.28
2022-08-30T08:55:30.254Z,44.96
2022-08-30T08:57:58.214Z,44.97
2022-08-30T09:00:25.825Z,45.17
2022-08-30T09:03:01.722Z,44.98
2022-08-30T09:05:36.033Z,44.88
2022-08-30T09:08:11.400Z,45.04
2022-08-30T09:10:50.538Z,45.51
2022-08-30T09:13:23.066Z,45.38
2022-08-30T09:15:55.036Z,45.19
2022-08-30T09:18:51.251Z,45.16
2022-08-30T09:21:27.301Z,45.06
2022-08-30T09:23:59.156Z,45.05
2022-08-30T09:26:33.660Z,45.10
2022-08-30T09:29:01.271Z,44.58
2022-08-30T09:31:32.524Z,45.12
2022-08-30T09:34:03.967Z,45.18
2022-08-30T09:36:44.455Z,45.56
2022-08-30T09:39:33.510Z,45.66
2022-08-30T09:42:18.970Z,45.99
2022-08-30T09:44:46.741Z,46.30
2022-08-30T09:47:29.635Z,46.03
2022-08-30T09:50:12.225Z,45.96
2022-08-30T09:53:09.802Z,46.30
2022-08-30T09:55:43.365Z,46.03
2022-08-30T09:58:17.422Z,45.63
2022-08-30T10:01:15.057Z,45.56
2022-08-30T10:04:02.148Z,46.26
2022-08-30T10:06:49.982Z,46.43
2022-08-30T10:09:58.442Z,46.38
2022-08-30T10:13:00.625Z,46.13
2022-08-30T10:15:46.745Z,45.23
2022-08-30T10:18:23.609Z,45.56
2022-08-30T10:21:07.155Z,45.31
2022-08-30T10:24:04.668Z,45.90
2022-08-30T10:26:39.939Z,45.95
2022-08-30T10:29:14.719Z,46.05
2022-08-30T10:31:55.457Z,45.94
2022-08-30T10:34:39.906Z,46.32
2022-08-30T10:37:13.520Z,46.04
2022-08-30T10:40:21.599Z,46.12
2022-08-30T10:42:53.024Z,46.16
2022-08-30T10:45:22.130Z,45.55
2022-08-30T10:48:14.011Z,45.67
2022-08-30T10:50:45.735Z,45.63
2022-08-30T10:53:19.072Z,45.26
2022-08-30T10:56:05.424Z,45.46
2022-08-30T10:58:33.278Z,45.29
2022-08-30T11:01:28.623Z,44.79
2022-08-30T11:04:04.531Z,44.72
2022-08-30T11:06:45.819Z,44.58
2022-08-30T11:10:08.206Z,44.11
2022-08-30T11:12:49.630Z,44.06
2022-08-30T11:15:29.979Z,43.84
2022-08-30T11:18:09.421Z,43.79
2022-08-30T11:20:42.551Z,43.15
2022-08-30T11:23:19.396Z,43.78
2022-08-30T11:25:59.503Z,43.37
2022-08-30T11:28:35.919Z,43.35
2022-08-30T11:31:08.845Z,43.29
2022-08-30T11:33:42.085Z,43.52
2022-08-30T11:36:37.246Z,43.73
2022-08-30T11:39:11.885Z,43.80
2022-08-30T11:41:48.224Z,43.22
2022-08-30T11:44:22.007Z,43.00
2022-08-30T11:46:53.090Z,43.52
2022-08-30T11:49:46.127Z,43.84
2022-08-30T11:52:54.912Z,44.11
2022-08-30T11:55:38.132Z,44.67
2022-08-30T11:58:32.659Z,44.18
2022-08-30T12:01:55.041Z,43.76
2022-08-30T12:04:37.415Z,43.98
2022-08-30T12:07:08.903Z,44.23
2022-08-30T12:09:39.182Z,43.59
2022-08-30T12:12:10.266Z,43.87
2022-08-30T12:14:55.846Z,43.47
2022-08-30T12:18:04.721Z,42.19
2022-08-30T12:20:46.060Z,41.94
2022-08-30T12:23:38.207Z,42.89
2022-08-30T12:26:25.090Z,43.14
2022-08-30T12:29:10.814Z,43.46
2022-08-30T12:32:05.135Z,43.61
2022-08-30T12:34:50.598Z,43.90
2022-08-30T12:37:32.432Z,43.84
2022-08-30T12:40:14.478Z,43.88
2022-08-30T12:42:53.320Z,43.76
2022-08-30T12:45:25.815Z,43.85
2022-08-30T12:48:05.869Z,44.11
2022-08-30T12:50:48.851Z,43.91
2022-08-30T12:53:32.429Z,43.45
2022-08-30T12:56:12.179Z,43.20
2022-08-30T12:58:49.539Z,43.56
2022-08-30T13:01:32.383Z,43.58
2022-08-30T13:04:23.335Z,43.42
2022-08-30T13:06:57.706Z,43.19
2022-08-30T13:09:41.092Z,43.52
2022-08-30T13:12:25.151Z,43.67
2022-08-30T13:15:08.732Z,43.65
2022-08-30T13:17:36.157Z,43.27
2022-08-30T13:20:16.363Z,42.95
2022-08-30T13:23:05.702Z,43.26
2022-08-30T13:25:34.652Z,42.99
2022-08-30T13:28:03.261Z,43.37
2022-08-30T13:30:31.068Z,43.23
2022-08-30T13:33:01.318Z,42.76
2022-08-30T13:35:31.374Z,42.97
2022-08-30T13:38:01.877Z,43.55
2022-08-30T13:40:29.283Z,43.44
2022-08-30T13:42:57.298Z,43.24
2022-08-30T13:45:42.265Z,43.19
2022-08-30T13:48:11.385Z,43.18
2022-08-30T13:50:39.959Z,42.93
2022-08-30T13:53:09.325Z,42.97
2022-08-30T13:55:39.502Z,43.36
2022-08-30T13:58:08.625Z,42.98
2022-08-30T14:00:38.488Z,43.00
2022-08-30T14:03:06.172Z,42.75
2022-08-30T14:08:46.409Z,42.95
2022-08-30T14:11:21.116Z,43.03
2022-08-30T14:16:41.893Z,42.92
2022-08-30T14:19:11.471Z,43.19
2022-08-30T14:21:39.245Z,43.13
2022-08-30T14:24:06.909Z,42.98
2022-08-30T14:26:39.472Z,43.04
2022-08-30T14:29:10.214Z,43.52
2022-08-30T14:31:39.751Z,43.77
2022-08-30T14:34:11.391Z,43.54
2022-08-30T14:36:42.093Z,42.12
2022-08-30T14:39:14.446Z,42.12
2022-08-30T14:41:45.945Z,42.10
2022-08-30T14:44:15.134Z,42.18
2022-08-30T14:46:43.177Z,41.68
2022-08-30T14:49:12.603Z,41.25
2022-08-30T14:51:41.613Z,41.22
2022-08-30T14:54:09.607Z,41.06
2022-08-30T14:56:40.322Z,40.32
2022-08-30T14:59:08.440Z,40.72
2022-08-30T15:01:38.855Z,40.91
2022-08-30T15:04:09.307Z,41.22
2022-08-30T15:06:41.146Z,41.86
2022-08-30T15:09:11.716Z,42.09
2022-08-30T15:11:40.186Z,42.23
2022-08-30T15:14:07.675Z,42.27
2022-08-30T15:16:37.825Z,42.24
2022-08-30T15:19:09.236Z,42.23
2022-08-30T15:21:44.604Z,42.56
2022-08-30T15:24:16.247Z,42.54
2022-08-30T15:26:45.277Z,42.29
2022-08-30T15:29:17.617Z,43.10
2022-08-30T15:31:49.884Z,43.45
2022-08-30T15:34:20.018Z,43.22
2022-08-30T15:36:49.138Z,43.58
2022-08-30T15:39:18.813Z,43.47
2022-08-30T15:41:46.854Z,43.55
2022-08-30T15:44:23.635Z,43.30
2022-08-30T15:46:51.094Z,43.23
2022-08-30T15:49:23.140Z,43.34
2022-08-30T15:51:54.209Z,42.81
2022-08-30T15:54:24.024Z,42.94
2022-08-30T15:56:59.265Z,43.05
2022-08-30T15:59:31.541Z,42.76
2022-08-30T16:02:01.029Z,42.70
2022-08-30T16:04:29.423Z,42.39
2022-08-30T16:06:56.977Z,42.22
2022-08-30T16:09:26.433Z,42.22
2022-08-30T16:11:58.507Z,41.94
2022-08-30T16:14:27.580Z,42.58
2022-08-30T16:16:55.506Z,43.23
2022-08-30T16:19:23.441Z,43.30
2022-08-30T16:21:51.823Z,43.04
2022-08-30T16:24:22.333Z,43.65
2022-08-30T16:26:50.814Z,43.45
2022-08-30T16:29:18.282Z,43.85
2022-08-30T16:31:46.025Z,43.93
2022-08-30T16:34:17.751Z,44.11
2022-08-30T16:36:45.344Z,44.02
2022-08-30T16:39:14.526Z,44.06
2022-08-30T16:41:44.771Z,44.31
2022-08-30T16:44:13.888Z,44.38
2022-08-30T16:46:43.997Z,44.43
2022-08-30T16:49:23.062Z,44.67
2022-08-30T16:51:51.519Z,44.64
2022-08-30T16:54:21.311Z,44.37
2022-08-30T16:56:49.089Z,44.88
2022-08-30T16:59:17.509Z,44.46
2022-08-30T17:01:46.555Z,44.84
2022-08-30T17:04:19.452Z,45.01
2022-08-30T17:06:50.859Z,44.90
2022-08-30T17:09:23.615Z,44.85
2022-08-30T17:11:54.418Z,44.86
2022-08-30T17:14:27.886Z,44.84
2022-08-30T17:17:00.342Z,44.82
2022-08-30T17:19:35.680Z,44.94
2022-08-30T17:22:07.199Z,44.75
2022-08-30T17:24:44.219Z,44.59
2022-08-30T17:27:16.989Z,44.39
2022-08-30T17:29:46.314Z,44.62
2022-08-30T17:32:14.277Z,44.63
2022-08-30T17:34:42.048Z,44.87
2022-08-30T17:37:15.849Z,44.67
2022-08-30T17:39:46.770Z,44.64
2022-08-30T17:42:17.064Z,44.68
2022-08-30T17:44:52.219Z,44.61
2022-08-30T17:47:20.654Z,44.80
2022-08-30T17:49:48.433Z,44.74
2022-08-30T17:52:18.243Z,44.74
2022-08-30T17:54:47.469Z,45.06
2022-08-30T17:57:18.199Z,44.91
2022-08-30T17:59:49.257Z,45.04
2022-08-30T18:02:19.022Z,44.53
2022-08-30T18:04:52.974Z,44.99
2022-08-30T18:07:22.038Z,44.73
2022-08-30T18:09:50.183Z,44.96
2022-08-30T18:12:18.428Z,44.81
2022-08-30T18:14:47.279Z,44.99
2022-08-30T18:17:24.667Z,44.71
2022-08-30T18:19:53.913Z,44.71
2022-08-30T18:22:23.974Z,44.43
2022-08-30T18:25:01.680Z,44.73
2022-08-30T18:27:31.775Z,44.42
2022-08-30T18:30:00.968Z,44.45
2022-08-30T18:32:32.731Z,44.58
2022-08-30T18:35:08.873Z,44.76
2022-08-30T18:37:40.523Z,44.59
2022-08-30T18:40:10.689Z,44.61
2022-08-30T18:42:49.779Z,44.50
2022-08-30T18:45:24.900Z,44.33
2022-08-30T18:47:54.086Z,44.46
2022-08-30T18:50:25.263Z,44.30
2022-08-30T18:52:57.072Z,44.29
2022-08-30T18:55:33.204Z,44.26
2022-08-30T18:58:02.478Z,44.59
2022-08-30T19:00:34.159Z,44.18
2022-08-30T19:03:04.375Z,44.19
2022-08-30T19:05:35.330Z,44.34
2022-08-30T19:08:03.620Z,44.41
2022-08-30T19:10:32.958Z,43.98
2022-08-30T19:13:02.851Z,44.02
2022-08-30T19:15:34.104Z,44.22
2022-08-30T19:18:16.763Z,44.00
2022-08-30T19:20:46.920Z,44.22
2022-08-30T19:23:17.975Z,44.15
2022-08-30T19:25:45.696Z,44.31
2022-08-30T19:28:23.021Z,44.17
2022-08-30T19:30:52.299Z,44.39
2022-08-30T19:33:20.196Z,44.45
2022-08-30T19:35:51.089Z,44.41
2022-08-30T19:38:19.112Z,44.40
2022-08-30T19:40:52.382Z,44.08
2022-08-30T19:43:22.197Z,44.32
2022-08-30T19:45:55.625Z,44.28
2022-08-30T19:48:32.015Z,44.33
2022-08-30T19:51:06.891Z,43.96
2022-08-30T19:53:35.890Z,44.28
2022-08-30T19:56:04.103Z,44.33
2022-08-30T19:58:32.845Z,44.38
2022-08-30T20:01:11.743Z,44.30
2022-08-30T20:03:48.612Z,44.33
2022-08-30T20:06:20.479Z,44.26
2022-08-30T20:08:48.293Z,43.96
2022-08-30T20:11:20.046Z,44.07
2022-08-30T20:13:48.587Z,44.23
2022-08-30T20:16:16.735Z,44.10
2022-08-30T20:18:44.891Z,43.96
2022-08-30T20:21:15.334Z,44.04
2022-08-30T20:23:43.733Z,44.18
2022-08-30T20:26:13.017Z,44.22
2022-08-30T20:28:42.555Z,44.08
2022-08-30T20:31:11.779Z,44.10
2022-08-30T20:33:40.088Z,44.03
2022-08-30T20:36:11.312Z,43.63
2022-08-30T20:38:39.738Z,43.81
2022-08-30T20:41:12.650Z,43.92
2022-08-30T20:43:40.438Z,43.87
2022-08-30T20:46:19.930Z,43.88
2022-08-30T20:48:48.222Z,43.82
2022-08-30T20:51:19.905Z,43.58
2022-08-30T20:53:47.333Z,43.70
2022-08-30T20:56:21.657Z,43.58
2022-08-30T20:58:50.509Z,43.57
2022-08-30T21:01:18.641Z,43.35
2022-08-30T21:03:49.331Z,43.48
2022-08-30T21:06:17.449Z,43.51
2022-08-30T21:08:45.429Z,43.51
2022-08-30T21:11:13.081Z,43.58
2022-08-30T21:13:40.745Z,43.61
2022-08-30T21:16:08.602Z,43.38
2022-08-30T21:18:40.657Z,43.67
2022-08-30T21:21:21.555Z,43.69
2022-08-30T21:23:50.532Z,43.50
2022-08-30T21:26:19.525Z,43.58
2022-08-30T21:28:48.460Z,43.40
2022-08-30T21:31:20.644Z,43.61
2022-08-30T21:33:50.465Z,43.46
2022-08-30T21:36:37.737Z,43.59
2022-08-30T21:39:06.578Z,43.45
2022-08-30T21:41:35.527Z,43.37
2022-08-30T21:44:11.966Z,43.41
2022-08-30T21:46:41.005Z,43.43
2022-08-30T21:49:10.694Z,43.46
2022-08-30T21:51:41.656Z,43.14
2022-08-30T21:54:11.037Z,43.13
2022-08-30T21:56:40.924Z,43.31
2022-08-30T21:59:09.747Z,43.15
2022-08-30T22:01:37.953Z,43.12
2022-08-30T22:04:07.525Z,43.01
2022-08-30T22:06:36.866Z,43.06
2022-08-30T22:09:08.899Z,43.02
2022-08-30T22:11:37.200Z,43.04
2022-08-30T22:14:06.068Z,43.17
2022-08-30T22:16:35.086Z,43.22
2022-08-30T22:19:03.685Z,43.25
2022-08-30T22:21:36.094Z,43.42
2022-08-30T22:24:04.769Z,43.15
2022-08-30T22:26:33.438Z,42.92
2022-08-30T22:29:02.202Z,43.22
2022-08-30T22:31:29.927Z,42.68
2022-08-30T22:33:57.758Z,42.79
2022-08-30T22:36:32.366Z,42.80
2022-08-30T22:39:03.157Z,42.55
2022-08-30T22:41:33.992Z,42.44
2022-08-30T22:44:02.757Z,42.73
2022-08-30T22:46:34.193Z,42.52
2022-08-30T22:49:07.989Z,42.62
2022-08-30T22:51:35.595Z,42.65
2022-08-30T22:54:05.741Z,42.74
2022-08-30T22:56:35.454Z,42.87
2022-08-30T22:59:03.685Z,42.77
2022-08-30T23:01:44.800Z,42.72
2022-08-30T23:04:12.996Z,43.01
2022-08-30T23:06:41.013Z,42.71
2022-08-30T23:09:08.537Z,42.90
2022-08-30T23:11:39.065Z,42.81
2022-08-30T23:14:07.734Z,42.99
2022-08-30T23:16:35.543Z,42.73
2022-08-30T23:19:04.875Z,43.03
2022-08-30T23:21:32.586Z,42.68
2022-08-30T23:24:18.601Z,42.78
2022-08-30T23:27:04.736Z,42.74
2022-08-30T23:29:51.975Z,42.72
2022-08-30T23:32:39.733Z,42.82
2022-08-30T23:35:30.514Z,42.97
2022-08-30T23:38:18.073Z,42.94
2022-08-30T23:41:03.925Z,42.67
2022-08-30T23:43:50.517Z,42.55
2022-08-30T23:46:36.561Z,42.83
2022-08-30T23:49:23.117Z,42.57
2022-08-30T23:52:10.045Z,42.66
2022-08-30T23:54:58.549Z,42.71
2022-08-30T23:57:45.275Z,42.70
